Alamo, North Dakota
Current Conditions -  °F | °C
As of 2:15 AM on Sunday 26 Oct 2014 (Local Time) from KD50 Reporting Station
Clear Clear  
Wind Chill:   Ceiling: Unl
Heat Index:   Visibility: 10mi
Dew Point: -1°   Wind: 17mph
Humidity: 50%   Direction: 140°SE
Pressure: 29.68"   Gusts: 24mph
Location:  48.58°N, 103.47°W
Report Text: KD50 260715Z AUTO 14015G21KT 10SM CLR 09/M01 A2968 RMK AO2
Loading
Personal Weather Stations






























Interactive Weather Map
Tropical Storm Tracking
New forecast layout! Learn more

10-Day Weather Forecast

Advertisements
Track Severe Weather on mobile